Terminal Aerodrome Forecast
Issued by NWS Kansas City/Pleasant Hill, MO

Home | Current Version | Previous Version | Text Only | Print | Product List | Glossary On
Versions: 1 2 3 4 5 6 7 8 9 10 11 12 13 14 15 16 17 18 19 20
000
FTUS43 KEAX 161120
TAFMCI
TAF
KMCI 161120Z 1612/1712 16006KT P6SM VCTS SCT030 OVC070CB
     FM161600 19009KT P6SM VCTS BKN060CB
      TEMPO 1701/1704 2SM TSRA BKN035CB
     FM170700 23006KT P6SM BKN015=

USA.gov is the U.S. government's official web portal to all federal, state and local government web resources and services.